Time;durP1;ratioP1;P1;durP2;ratioP2;P2;SDS_P1;SDS_P2;PMS_P1;PMS_P2;Temp;Humidity;BMP_temperature;BMP_pressure;BME280_temperature;BME280_humidity;BME280_pressure;Samples;Min_cycle;Max_cycle;Signal;HPM_P1;HPM_P2
2022/06/26 00:01:07;;;;;;;5.55;2.28;;;;;;;;;;5083254;28;20143;-63
2022/06/26 00:03:34;;;;;;;4.88;2.40;;;;;;;;;;5083005;28;20492;-63
2022/06/26 00:06:00;;;;;;;4.30;2.38;;;;;;;;;;5083204;28;20543;-63
2022/06/26 00:08:27;;;;;;;5.20;2.40;;;;;;;;;;5081753;28;20833;-64
2022/06/26 00:10:54;;;;;;;5.03;2.50;;;;;;;;;;5083415;28;20036;-64
2022/06/26 00:13:20;;;;;;;5.32;1.95;;;;;;;;;;5081065;28;20067;-65
2022/06/26 00:15:47;;;;;;;5.75;2.50;;;;;;;;;;5081564;28;20051;-64
2022/06/26 00:18:14;;;;;;;5.53;2.38;;;;;;;;;;5081223;28;20524;-64
2022/06/26 00:20:41;;;;;;;4.50;2.13;;;;;;;;;;5082976;28;20035;-63
2022/06/26 00:23:08;;;;;;;4.35;2.10;;;;;;;;;;5080679;28;20047;-63
2022/06/26 00:25:35;;;;;;;4.82;2.15;;;;;;;;;;5081650;28;20048;-64
2022/06/26 00:28:02;;;;;;;5.18;2.30;;;;;;;;;;5057984;28;20851;-61
2022/06/26 00:30:29;;;;;;;3.90;2.00;;;;;;;;;;5066615;28;20048;-62
2022/06/26 00:32:56;;;;;;;4.45;2.08;;;;;;;;;;5081862;28;20073;-63
2022/06/26 00:35:22;;;;;;;4.10;1.90;;;;;;;;;;5082339;28;20028;-63
2022/06/26 00:37:49;;;;;;;4.72;2.00;;;;;;;;;;5081544;28;20548;-65
2022/06/26 00:40:16;;;;;;;3.90;2.03;;;;;;;;;;5083619;28;20431;-64
2022/06/26 00:42:42;;;;;;;5.05;2.40;;;;;;;;;;5079939;28;20044;-64
2022/06/26 00:45:09;;;;;;;4.45;2.05;;;;;;;;;;5082607;28;20489;-64
2022/06/26 00:47:36;;;;;;;5.00;2.28;;;;;;;;;;5081475;28;20056;-64
2022/06/26 00:50:05;;;;;;;5.43;2.20;;;;;;;;;;5081650;28;20088;-64
2022/06/26 00:52:33;;;;;;;4.82;1.92;;;;;;;;;;5083153;28;20094;-64
2022/06/26 00:55:00;;;;;;;5.43;2.20;;;;;;;;;;5081059;28;20496;-63
2022/06/26 00:57:28;;;;;;;6.15;2.42;;;;;;;;;;5079930;28;20142;-63
2022/06/26 00:59:56;;;;;;;4.20;1.95;;;;;;;;;;5083048;28;20085;-64
2022/06/26 01:02:23;;;;;;;3.78;1.90;;;;;;;;;;5080364;28;20032;-64
2022/06/26 01:04:49;;;;;;;3.72;1.63;;;;;;;;;;5081898;28;20028;-63
2022/06/26 01:07:16;;;;;;;4.22;1.98;;;;;;;;;;5081156;28;20073;-64
2022/06/26 01:09:43;;;;;;;4.65;2.03;;;;;;;;;;5080442;28;21400;-64
2022/06/26 01:12:10;;;;;;;3.78;1.88;;;;;;;;;;5083352;28;20132;-63
2022/06/26 01:14:36;;;;;;;4.35;2.10;;;;;;;;;;5081418;28;20128;-63
2022/06/26 01:17:03;;;;;;;5.68;2.05;;;;;;;;;;5082210;28;20132;-63
2022/06/26 01:19:30;;;;;;;4.68;2.10;;;;;;;;;;5083354;28;20067;-61
2022/06/26 01:21:57;;;;;;;4.32;2.15;;;;;;;;;;5083021;28;20483;-62
2022/06/26 01:24:23;;;;;;;4.85;2.30;;;;;;;;;;5085759;28;20046;-63
2022/06/26 01:26:50;;;;;;;5.22;2.15;;;;;;;;;;5067900;28;20035;-63
2022/06/26 01:29:17;;;;;;;4.45;2.08;;;;;;;;;;5087019;28;20059;-63
2022/06/26 01:31:44;;;;;;;5.20;2.10;;;;;;;;;;5068558;28;20047;-62
2022/06/26 01:34:11;;;;;;;3.90;2.25;;;;;;;;;;5088495;28;20162;-62
2022/06/26 01:36:38;;;;;;;4.18;2.08;;;;;;;;;;5067593;28;20142;-62
2022/06/26 01:39:05;;;;;;;4.57;2.03;;;;;;;;;;5085178;28;21183;-63
2022/06/26 01:41:32;;;;;;;5.05;2.25;;;;;;;;;;5087107;28;20187;-62
2022/06/26 01:43:58;;;;;;;5.47;2.13;;;;;;;;;;5085246;28;20199;-62
2022/06/26 01:46:26;;;;;;;6.68;1.95;;;;;;;;;;5085942;28;20502;-62
2022/06/26 01:48:52;;;;;;;3.70;1.73;;;;;;;;;;5085388;28;20036;-62
2022/06/26 01:51:19;;;;;;;5.70;1.90;;;;;;;;;;5087168;28;20387;-62
2022/06/26 01:53:46;;;;;;;4.90;2.25;;;;;;;;;;5086099;28;20035;-62
2022/06/26 01:56:13;;;;;;;4.45;2.03;;;;;;;;;;5087693;28;20082;-62
2022/06/26 01:58:39;;;;;;;5.15;1.63;;;;;;;;;;5085134;28;20480;-62
2022/06/26 02:01:08;;;;;;;4.25;1.77;;;;;;;;;;5086564;28;20036;-63
2022/06/26 02:03:35;;;;;;;4.72;1.90;;;;;;;;;;5068247;28;20036;-63
2022/06/26 02:06:02;;;;;;;3.97;1.80;;;;;;;;;;5087691;28;20119;-62
2022/06/26 02:08:28;;;;;;;4.30;1.88;;;;;;;;;;5085889;28;20169;-61
2022/06/26 02:13:40;;;;;;;4.70;2.28;;;;;;;;;;5083657;28;20055;-63
2022/06/26 02:16:15;;;;;;;4.75;2.15;;;;;;;;;;5085458;28;20074;-63
2022/06/26 02:18:43;;;;;;;4.72;2.40;;;;;;;;;;5085920;28;20043;-63
2022/06/26 02:21:10;;;;;;;4.47;1.92;;;;;;;;;;5085802;28;20036;-62
2022/06/26 02:23:38;;;;;;;4.90;2.10;;;;;;;;;;5085335;28;20176;-62
2022/06/26 02:26:05;;;;;;;5.70;1.98;;;;;;;;;;5085196;28;20051;-62
2022/06/26 02:28:32;;;;;;;7.18;2.10;;;;;;;;;;5084497;28;20497;-62
2022/06/26 02:30:58;;;;;;;6.70;2.13;;;;;;;;;;5103100;27;20043;-62
2022/06/26 02:33:25;;;;;;;4.70;2.15;;;;;;;;;;5103200;27;20381;-62
2022/06/26 02:35:54;;;;;;;3.97;2.08;;;;;;;;;;5106786;27;20043;-63
2022/06/26 02:38:21;;;;;;;4.30;2.22;;;;;;;;;;5096121;27;20126;-62
2022/06/26 02:40:48;;;;;;;3.83;1.92;;;;;;;;;;5106015;27;20115;-64
2022/06/26 02:43:14;;;;;;;7.20;1.95;;;;;;;;;;5105581;27;20047;-62
2022/06/26 02:45:41;;;;;;;4.90;1.92;;;;;;;;;;5103800;27;20069;-63
2022/06/26 02:48:08;;;;;;;4.20;1.70;;;;;;;;;;5098626;27;20040;-63
2022/06/26 02:50:34;;;;;;;4.95;1.88;;;;;;;;;;5104823;27;20032;-63
2022/06/26 02:53:01;;;;;;;4.18;2.10;;;;;;;;;;5085064;27;20983;-63
2022/06/26 02:55:28;;;;;;;4.43;2.05;;;;;;;;;;5096240;27;20487;-62
2022/06/26 02:57:54;;;;;;;4.80;1.95;;;;;;;;;;5107390;27;20104;-63
2022/06/26 03:00:21;;;;;;;8.20;2.40;;;;;;;;;;5105471;27;20131;-63
2022/06/26 03:02:48;;;;;;;5.00;2.03;;;;;;;;;;5104837;27;20046;-62
2022/06/26 03:05:14;;;;;;;5.03;2.00;;;;;;;;;;5077960;28;20170;-63
2022/06/26 03:07:41;;;;;;;4.10;1.80;;;;;;;;;;5082572;28;20048;-63
2022/06/26 03:10:08;;;;;;;4.68;1.88;;;;;;;;;;5083882;28;20395;-61
2022/06/26 03:12:35;;;;;;;4.88;1.90;;;;;;;;;;5080942;28;20070;-63
2022/06/26 03:15:02;;;;;;;4.53;2.20;;;;;;;;;;5083795;28;20126;-64
2022/06/26 03:17:29;;;;;;;5.68;1.90;;;;;;;;;;5082488;28;20101;-65
2022/06/26 03:19:55;;;;;;;5.18;1.90;;;;;;;;;;5083452;28;20044;-64
2022/06/26 03:22:22;;;;;;;4.72;2.10;;;;;;;;;;5100098;27;20517;-63
2022/06/26 03:24:49;;;;;;;5.10;2.30;;;;;;;;;;5064951;28;20048;-61
2022/06/26 03:27:15;;;;;;;4.05;1.92;;;;;;;;;;5085211;28;20126;-61
2022/06/26 03:29:42;;;;;;;7.00;3.00;;;;;;;;;;5083033;28;20083;-66
2022/06/26 03:32:09;;;;;;;6.20;2.33;;;;;;;;;;5083425;28;20047;-61
2022/06/26 03:34:35;;;;;;;5.18;2.17;;;;;;;;;;5083292;28;20515;-65
2022/06/26 03:37:02;;;;;;;5.25;2.47;;;;;;;;;;5084247;28;20508;-64
2022/06/26 03:39:28;;;;;;;4.40;2.20;;;;;;;;;;5080367;28;20105;-62
2022/06/26 03:42:00;;;;;;;8.30;2.42;;;;;;;;;;5083691;28;20159;-63
2022/06/26 03:44:27;;;;;;;5.35;2.30;;;;;;;;;;5083386;28;20043;-62
2022/06/26 03:46:54;;;;;;;4.72;2.08;;;;;;;;;;5097891;27;20169;-63
2022/06/26 03:49:20;;;;;;;5.13;2.10;;;;;;;;;;5065239;28;20035;-63
2022/06/26 03:51:47;;;;;;;4.80;2.17;;;;;;;;;;5083211;28;20042;-63
2022/06/26 03:54:14;;;;;;;5.68;2.35;;;;;;;;;;5083034;28;20086;-63
2022/06/26 03:56:41;;;;;;;4.32;2.10;;;;;;;;;;5081298;28;20131;-63
2022/06/26 03:59:07;;;;;;;5.68;2.40;;;;;;;;;;5083889;28;20237;-59
2022/06/26 04:01:34;;;;;;;5.40;2.38;;;;;;;;;;5082046;28;20122;-62
2022/06/26 04:04:01;;;;;;;5.93;2.78;;;;;;;;;;5082143;28;20150;-61
2022/06/26 04:06:27;;;;;;;5.47;2.20;;;;;;;;;;5081952;28;20033;-64
2022/06/26 04:08:54;;;;;;;5.55;2.40;;;;;;;;;;5083947;28;20972;-65
2022/06/26 04:11:20;;;;;;;5.50;2.42;;;;;;;;;;5084417;28;20138;-63
2022/06/26 04:13:49;;;;;;;7.85;2.30;;;;;;;;;;5081190;28;20039;-62
2022/06/26 04:16:16;;;;;;;5.00;2.30;;;;;;;;;;5083319;28;20154;-63
2022/06/26 04:18:43;;;;;;;6.03;2.42;;;;;;;;;;5082598;28;20063;-64
2022/06/26 04:21:09;;;;;;;5.18;2.33;;;;;;;;;;5083434;28;20466;-64
2022/06/26 04:23:36;;;;;;;4.78;2.38;;;;;;;;;;5063272;28;20703;-64
2022/06/26 04:26:04;;;;;;;4.95;2.10;;;;;;;;;;5063747;28;20090;-64
2022/06/26 04:28:31;;;;;;;5.65;2.47;;;;;;;;;;5081372;28;20445;-64
2022/06/26 04:30:58;;;;;;;6.40;2.63;;;;;;;;;;5084156;28;20075;-64
2022/06/26 04:33:25;;;;;;;6.05;2.78;;;;;;;;;;5081518;28;20036;-64
2022/06/26 04:35:51;;;;;;;5.20;2.50;;;;;;;;;;5082459;28;20051;-64
2022/06/26 04:38:18;;;;;;;6.35;2.53;;;;;;;;;;5080585;28;20035;-64
2022/06/26 04:40:46;;;;;;;6.18;3.00;;;;;;;;;;5082624;28;20445;-62
2022/06/26 04:43:12;;;;;;;5.05;2.50;;;;;;;;;;5083597;28;20067;-62
2022/06/26 04:45:39;;;;;;;7.57;2.40;;;;;;;;;;5083250;28;20039;-60
2022/06/26 04:48:06;;;;;;;5.07;2.45;;;;;;;;;;5080898;28;20059;-62
2022/06/26 04:50:32;;;;;;;3.95;1.95;;;;;;;;;;5082145;28;20051;-64
2022/06/26 04:52:59;;;;;;;4.93;2.28;;;;;;;;;;5081645;28;20082;-61
2022/06/26 04:55:26;;;;;;;4.55;2.28;;;;;;;;;;5081695;28;20044;-64
2022/06/26 04:57:52;;;;;;;5.28;2.38;;;;;;;;;;5085545;28;20067;-64
2022/06/26 05:00:19;;;;;;;5.30;2.72;;;;;;;;;;5085529;28;20036;-62
2022/06/26 05:02:46;;;;;;;5.82;2.60;;;;;;;;;;5084172;28;20609;-60
2022/06/26 05:05:12;;;;;;;5.15;2.70;;;;;;;;;;5089636;28;20044;-62
2022/06/26 05:07:39;;;;;;;7.97;2.67;;;;;;;;;;5086573;28;20863;-63
2022/06/26 05:10:06;;;;;;;5.32;2.47;;;;;;;;;;5088711;28;20035;-62
2022/06/26 05:12:33;;;;;;;5.22;2.58;;;;;;;;;;5087355;28;20526;-62
2022/06/26 05:14:59;;;;;;;5.60;2.70;;;;;;;;;;5067744;28;20036;-63
2022/06/26 05:17:26;;;;;;;5.45;2.60;;;;;;;;;;5086572;28;20197;-62
2022/06/26 05:19:53;;;;;;;7.07;2.83;;;;;;;;;;5069609;28;20152;-62
2022/06/26 05:22:19;;;;;;;6.72;2.55;;;;;;;;;;5085103;28;20032;-62
2022/06/26 05:24:46;;;;;;;5.85;2.70;;;;;;;;;;5084606;28;20078;-63
2022/06/26 05:27:13;;;;;;;7.13;3.55;;;;;;;;;;5086850;28;20039;-64
2022/06/26 05:29:40;;;;;;;5.55;3.25;;;;;;;;;;5084735;28;20044;-68
2022/06/26 05:32:09;;;;;;;6.75;3.10;;;;;;;;;;5084666;28;20476;-70
2022/06/26 05:34:39;;;;;;;5.32;2.58;;;;;;;;;;5058811;27;20178;-70
2022/06/26 05:37:06;;;;;;;7.80;2.97;;;;;;;;;;5087640;27;20054;-71
2022/06/26 05:39:32;;;;;;;9.65;3.92;;;;;;;;;;5085879;28;20067;-72
2022/06/26 05:41:59;;;;;;;6.07;2.63;;;;;;;;;;5086186;28;20127;-72
2022/06/26 05:44:26;;;;;;;5.57;2.40;;;;;;;;;;5084320;28;20576;-72
2022/06/26 05:46:52;;;;;;;5.88;2.70;;;;;;;;;;5086595;28;20040;-71
2022/06/26 05:49:19;;;;;;;5.07;2.58;;;;;;;;;;5085271;28;20183;-71
2022/06/26 05:51:46;;;;;;;4.65;2.33;;;;;;;;;;5096970;27;20074;-71
2022/06/26 05:54:12;;;;;;;5.90;2.63;;;;;;;;;;5108246;27;20050;-71
2022/06/26 05:56:39;;;;;;;7.50;2.72;;;;;;;;;;5107011;27;20428;-71
2022/06/26 05:59:06;;;;;;;7.35;3.00;;;;;;;;;;5107108;27;20518;-69
2022/06/26 06:01:33;;;;;;;4.57;2.60;;;;;;;;;;5107082;27;20047;-71
2022/06/26 06:03:59;;;;;;;5.28;2.60;;;;;;;;;;5106752;27;20081;-71
2022/06/26 06:06:26;;;;;;;5.32;2.42;;;;;;;;;;5103672;27;20084;-72
2022/06/26 06:08:53;;;;;;;8.95;2.85;;;;;;;;;;5105521;27;20500;-71
2022/06/26 06:11:19;;;;;;;6.93;2.67;;;;;;;;;;5106161;27;20039;-72
2022/06/26 06:13:46;;;;;;;5.05;2.53;;;;;;;;;;5106110;27;20096;-71
2022/06/26 06:16:12;;;;;;;5.55;2.80;;;;;;;;;;5106931;27;20569;-71
2022/06/26 06:18:39;;;;;;;6.80;2.42;;;;;;;;;;5104307;27;20123;-71
2022/06/26 06:21:06;;;;;;;5.70;2.55;;;;;;;;;;5106438;27;20048;-71
2022/06/26 06:23:32;;;;;;;5.80;2.63;;;;;;;;;;5106152;27;20036;-71
2022/06/26 06:25:59;;;;;;;5.43;2.67;;;;;;;;;;5089441;27;20023;-70
2022/06/26 06:28:26;;;;;;;5.00;2.58;;;;;;;;;;5084255;27;20028;-71
2022/06/26 06:30:52;;;;;;;6.38;2.95;;;;;;;;;;5108485;27;20172;-70
2022/06/26 06:33:19;;;;;;;7.82;2.83;;;;;;;;;;5106234;27;20035;-71
2022/06/26 06:35:48;;;;;;;6.55;2.63;;;;;;;;;;5101681;27;20046;-71
2022/06/26 06:38:15;;;;;;;6.68;2.92;;;;;;;;;;5097750;27;20035;-70
2022/06/26 06:40:41;;;;;;;5.20;2.63;;;;;;;;;;5097705;27;20139;-67
2022/06/26 06:43:11;;;;;;;7.03;3.15;;;;;;;;;;5105376;27;20495;-68
2022/06/26 06:45:38;;;;;;;7.60;2.80;;;;;;;;;;5106540;27;20036;-72
2022/06/26 06:48:05;;;;;;;9.57;2.90;;;;;;;;;;5105522;27;20043;-72
2022/06/26 06:50:32;;;;;;;5.93;2.50;;;;;;;;;;5105370;27;20116;-70
2022/06/26 06:52:58;;;;;;;5.53;2.55;;;;;;;;;;5104420;27;20039;-71
2022/06/26 06:55:25;;;;;;;5.43;2.65;;;;;;;;;;5105876;27;20047;-73
2022/06/26 06:57:52;;;;;;;5.00;2.53;;;;;;;;;;5068459;28;20595;-71
2022/06/26 07:00:18;;;;;;;5.47;2.60;;;;;;;;;;5080649;28;20519;-71
2022/06/26 07:02:45;;;;;;;7.97;2.90;;;;;;;;;;5089124;27;20039;-72
2022/06/26 07:05:12;;;;;;;10.13;2.90;;;;;;;;;;5088534;27;20477;-71
2022/06/26 07:07:38;;;;;;;5.30;2.50;;;;;;;;;;5065827;28;20131;-72
2022/06/26 07:10:08;;;;;;;5.65;2.80;;;;;;;;;;5085838;28;20050;-72
2022/06/26 07:12:37;;;;;;;7.25;2.70;;;;;;;;;;5084274;28;20130;-72
2022/06/26 07:15:04;;;;;;;6.65;2.80;;;;;;;;;;5075092;28;20818;-71
2022/06/26 07:17:33;;;;;;;6.65;2.80;;;;;;;;;;5060637;27;20135;-72
2022/06/26 07:20:00;;;;;;;5.10;2.47;;;;;;;;;;5084347;28;20058;-72
2022/06/26 07:22:29;;;;;;;5.68;2.92;;;;;;;;;;5067180;28;20047;-72
2022/06/26 07:24:56;;;;;;;5.60;2.58;;;;;;;;;;5085813;28;20032;-72
2022/06/26 07:27:23;;;;;;;6.00;2.63;;;;;;;;;;5086256;28;20040;-71
2022/06/26 07:29:49;;;;;;;5.70;2.50;;;;;;;;;;5086020;28;20496;-71
2022/06/26 07:32:16;;;;;;;6.22;2.75;;;;;;;;;;5086418;28;20032;-71
2022/06/26 07:34:43;;;;;;;6.07;2.88;;;;;;;;;;5086088;28;20063;-70
2022/06/26 07:37:09;;;;;;;5.28;2.47;;;;;;;;;;5102260;27;20407;-71
2022/06/26 07:39:36;;;;;;;5.75;2.67;;;;;;;;;;5102351;27;20116;-70
2022/06/26 07:42:03;;;;;;;4.80;2.53;;;;;;;;;;5088052;28;20078;-70
2022/06/26 07:44:29;;;;;;;5.05;2.30;;;;;;;;;;5101579;27;20475;-70
2022/06/26 07:46:57;;;;;;;9.88;2.85;;;;;;;;;;5085820;28;20040;-71
2022/06/26 07:49:23;;;;;;;6.82;3.20;;;;;;;;;;5085824;28;20036;-71
2022/06/26 07:51:50;;;;;;;7.65;2.80;;;;;;;;;;5085507;28;20081;-71
2022/06/26 07:54:17;;;;;;;5.95;2.88;;;;;;;;;;5086873;28;20079;-71
2022/06/26 07:56:44;;;;;;;7.00;2.85;;;;;;;;;;5084754;28;20047;-72
2022/06/26 07:59:11;;;;;;;5.63;2.60;;;;;;;;;;5087957;28;20039;-71
2022/06/26 08:01:38;;;;;;;5.50;2.83;;;;;;;;;;5086529;28;20048;-71
2022/06/26 08:04:06;;;;;;;6.65;3.10;;;;;;;;;;5054593;28;20047;-72
2022/06/26 08:06:32;;;;;;;5.97;2.95;;;;;;;;;;5084967;28;20407;-72
2022/06/26 08:09:00;;;;;;;7.05;2.90;;;;;;;;;;5083608;28;20476;-71
2022/06/26 08:11:27;;;;;;;5.57;2.47;;;;;;;;;;5088849;28;20039;-72
2022/06/26 08:13:54;;;;;;;6.57;2.70;;;;;;;;;;5088978;28;20098;-72
2022/06/26 08:16:21;;;;;;;7.47;3.10;;;;;;;;;;5083751;28;20048;-71
2022/06/26 08:18:48;;;;;;;6.78;2.78;;;;;;;;;;5086893;28;20405;-71
2022/06/26 08:23:59;;;;;;;4.90;2.60;;;;;;;;;;5088089;28;20074;-72
2022/06/26 08:26:26;;;;;;;6.38;3.03;;;;;;;;;;5088733;28;20036;-71
2022/06/26 08:28:53;;;;;;;5.43;2.78;;;;;;;;;;5090345;28;20123;-72
2022/06/26 08:31:19;;;;;;;5.93;2.75;;;;;;;;;;5088639;28;20058;-70
2022/06/26 08:33:46;;;;;;;6.25;3.00;;;;;;;;;;5090740;28;20058;-72
2022/06/26 08:36:13;;;;;;;7.30;2.70;;;;;;;;;;5092310;28;20044;-71
2022/06/26 08:38:39;;;;;;;8.27;3.33;;;;;;;;;;5092519;28;20566;-71
2022/06/26 08:41:08;;;;;;;8.07;3.13;;;;;;;;;;5093669;28;20036;-71
2022/06/26 08:43:35;;;;;;;6.65;3.50;;;;;;;;;;5091930;28;20039;-72
2022/06/26 08:46:05;;;;;;;7.75;2.97;;;;;;;;;;5094496;28;20031;-71
2022/06/26 08:48:45;;;;;;;5.80;3.05;;;;;;;;;;5093668;28;20052;-71
2022/06/26 08:51:12;;;;;;;6.30;3.10;;;;;;;;;;5094973;28;20076;-72
2022/06/26 08:53:40;;;;;;;6.05;2.88;;;;;;;;;;5093069;28;20068;-71
2022/06/26 08:56:07;;;;;;;6.75;3.08;;;;;;;;;;5095786;28;20055;-70
2022/06/26 08:58:34;;;;;;;5.78;2.90;;;;;;;;;;5077577;28;20039;-69
2022/06/26 09:01:00;;;;;;;6.65;3.30;;;;;;;;;;5072358;28;20071;-70
2022/06/26 09:03:27;;;;;;;6.93;3.75;;;;;;;;;;5082037;28;20422;-70
2022/06/26 09:05:54;;;;;;;9.52;5.00;;;;;;;;;;5083987;28;20114;-70
2022/06/26 09:08:26;;;;;;;12.65;5.28;;;;;;;;;;5085977;28;20036;-70
2022/06/26 09:10:53;;;;;;;10.15;6.00;;;;;;;;;;5045364;28;20083;-71
2022/06/26 09:13:20;;;;;;;16.20;9.05;;;;;;;;;;5047137;28;20107;-70
2022/06/26 09:15:50;;;;;;;19.05;9.27;;;;;;;;;;5027253;28;20049;-70
2022/06/26 09:18:17;;;;;;;21.90;9.80;;;;;;;;;;5045987;28;20723;-70
2022/06/26 09:21:19;;;;;;;19.08;9.63;;;;;;;;;;5044276;28;20599;-70
2022/06/26 09:23:53;;;;;;;17.60;8.73;;;;;;;;;;5042220;28;20057;-70
2022/06/26 09:26:19;;;;;;;;;;;;;;;;;;5044237;28;20045;-69
2022/06/26 09:28:45;;;;;;;13.70;6.47;;;;;;;;;;5043492;28;19917;-70
2022/06/26 09:31:13;;;;;;;14.65;6.88;;;;;;;;;;5027274;28;20132;-70
2022/06/26 09:33:41;;;;;;;11.60;6.47;;;;;;;;;;5041685;28;20215;-70
2022/06/26 09:36:15;;;;;;;10.57;5.30;;;;;;;;;;5043626;28;20045;-71
2022/06/26 09:38:48;;;;;;;9.00;4.82;;;;;;;;;;5043692;28;20183;-71
2022/06/26 09:41:14;;;;;;;11.23;4.70;;;;;;;;;;5049498;28;20036;-71
2022/06/26 09:43:44;;;;;;;11.68;4.50;;;;;;;;;;5074991;28;20531;-71
2022/06/26 09:46:15;;;;;;;8.52;4.30;;;;;;;;;;5102973;27;20039;-71
2022/06/26 09:48:42;;;;;;;7.88;3.85;;;;;;;;;;5104361;27;20043;-72
2022/06/26 09:51:09;;;;;;;9.65;4.13;;;;;;;;;;5081393;28;20039;-72
2022/06/26 09:53:36;;;;;;;7.68;4.10;;;;;;;;;;5099445;27;20063;-71
2022/06/26 09:56:03;;;;;;;8.23;4.57;;;;;;;;;;5106563;27;20146;-71
2022/06/26 09:58:30;;;;;;;8.95;4.45;;;;;;;;;;5107781;27;20162;-70
2022/06/26 10:06:45;;;;;;;8.85;3.65;;;;;;;;;;5039152;28;20060;-71
2022/06/26 10:09:11;;;;;;;7.50;3.42;;;;;;;;;;5082810;27;20047;-70
2022/06/26 10:11:40;;;;;;;5.78;3.08;;;;;;;;;;5107240;27;20035;-71
2022/06/26 10:14:11;;;;;;;5.10;2.78;;;;;;;;;;5108997;27;20057;-70
2022/06/26 10:16:40;;;;;;;8.13;3.00;;;;;;;;;;5107434;27;20043;-71
2022/06/26 10:19:25;;;;;;;5.47;2.90;;;;;;;;;;5080958;28;20039;-71
2022/06/26 10:21:53;;;;;;;8.50;3.10;;;;;;;;;;5085219;27;20117;-71
2022/06/26 10:24:19;;;;;;;9.88;2.90;;;;;;;;;;5073139;28;20451;-71
2022/06/26 10:26:56;;;;;;;6.35;2.90;;;;;;;;;;5052372;28;20040;-71
2022/06/26 10:29:37;;;;;;;4.35;2.13;;;;;;;;;;5073106;28;20405;-71
2022/06/26 10:32:03;;;;;;;6.82;2.55;;;;;;;;;;5076065;28;20514;-71
2022/06/26 10:34:31;;;;;;;6.22;2.80;;;;;;;;;;5104860;27;20105;-70
2022/06/26 10:37:14;;;;;;;5.90;2.80;;;;;;;;;;5100181;27;20059;-70
2022/06/26 10:39:41;;;;;;;5.75;2.60;;;;;;;;;;5083600;27;20085;-71
2022/06/26 10:45:04;;;;;;;6.80;2.90;;;;;;;;;;5105402;27;20105;-71
2022/06/26 10:47:54;;;;;;;5.93;2.65;;;;;;;;;;5106655;27;20039;-71
2022/06/26 10:50:37;;;;;;;6.72;2.75;;;;;;;;;;5083889;27;20036;-70
2022/06/26 10:53:16;;;;;;;6.70;2.75;;;;;;;;;;5106342;27;20495;-71
2022/06/26 10:55:43;;;;;;;7.53;2.83;;;;;;;;;;5105123;27;20036;-71
2022/06/26 10:58:16;;;;;;;5.95;2.65;;;;;;;;;;5107397;27;20040;-70
2022/06/26 11:00:43;;;;;;;5.90;2.28;;;;;;;;;;5088657;27;20050;-71
2022/06/26 11:03:17;;;;;;;7.28;2.80;;;;;;;;;;5086626;27;20035;-71
2022/06/26 11:06:12;;;;;;;7.28;2.72;;;;;;;;;;5104077;27;20496;-70
2022/06/26 11:08:45;;;;;;;9.48;3.05;;;;;;;;;;5089312;27;20508;-70
2022/06/26 11:11:17;;;;;;;5.45;2.58;;;;;;;;;;5106531;27;20487;-70
2022/06/26 11:13:56;;;;;;;4.50;2.17;;;;;;;;;;5096685;27;20096;-70
2022/06/26 11:16:37;;;;;;;10.23;2.63;;;;;;;;;;5105938;27;21624;-70
2022/06/26 11:19:08;;;;;;;7.43;2.35;;;;;;;;;;5096547;27;20028;-71
2022/06/26 11:21:35;;;;;;;6.93;2.50;;;;;;;;;;5068933;27;20934;-70
2022/06/26 11:24:02;;;;;;;5.68;2.13;;;;;;;;;;5098414;27;20039;-71
2022/06/26 11:26:29;;;;;;;5.40;2.17;;;;;;;;;;5078204;28;20043;-71
2022/06/26 11:28:57;;;;;;;5.40;2.10;;;;;;;;;;5069321;28;20044;-70
2022/06/26 11:31:25;;;;;;;4.93;2.22;;;;;;;;;;5085909;28;20056;-70
2022/06/26 11:33:52;;;;;;;4.88;1.98;;;;;;;;;;5086625;28;20036;-70
2022/06/26 11:36:22;;;;;;;5.03;2.45;;;;;;;;;;5086569;28;20042;-70
2022/06/26 11:38:55;;;;;;;4.35;2.30;;;;;;;;;;5088223;28;20055;-66
2022/06/26 11:41:21;;;;;;;;;;;;;;;;;;5073773;28;20067;-68
2022/06/26 11:43:53;;;;;;;5.45;2.22;;;;;;;;;;5054053;28;19964;-68
2022/06/26 11:46:20;;;;;;;5.18;2.13;;;;;;;;;;5053898;28;20055;-71
2022/06/26 11:48:46;;;;;;;5.93;2.08;;;;;;;;;;5087974;28;20040;-70
2022/06/26 11:51:15;;;;;;;4.20;2.05;;;;;;;;;;5074381;28;20047;-69
2022/06/26 11:53:44;;;;;;;5.75;2.47;;;;;;;;;;5085298;28;20036;-70
2022/06/26 11:56:12;;;;;;;4.30;2.03;;;;;;;;;;5086506;28;20416;-70
2022/06/26 11:58:46;;;;;;;6.93;2.03;;;;;;;;;;5086289;28;20095;-69
2022/06/26 12:01:13;;;;;;;9.63;2.53;;;;;;;;;;5086662;28;20441;-71
2022/06/26 12:03:49;;;;;;;4.47;2.22;;;;;;;;;;5084632;28;20402;-70
2022/06/26 12:06:28;;;;;;;8.23;2.60;;;;;;;;;;5085471;28;20380;-70
2022/06/26 12:08:56;;;;;;;8.32;2.65;;;;;;;;;;5063252;28;20067;-70
2022/06/26 12:11:42;;;;;;;4.50;2.33;;;;;;;;;;5084433;28;20036;-71
2022/06/26 12:14:20;;;;;;;6.38;2.20;;;;;;;;;;5065953;28;20496;-70
2022/06/26 12:16:48;;;;;;;4.40;2.03;;;;;;;;;;5052997;27;22066;-70
2022/06/26 12:19:15;;;;;;;6.13;2.45;;;;;;;;;;5089858;28;20067;-71
2022/06/26 12:21:41;;;;;;;4.97;2.38;;;;;;;;;;5082954;28;20050;-70
2022/06/26 12:24:12;;;;;;;4.93;2.38;;;;;;;;;;5084905;28;20531;-71
2022/06/26 12:26:39;;;;;;;5.55;2.40;;;;;;;;;;5082584;28;20078;-71
2022/06/26 12:29:10;;;;;;;4.32;2.00;;;;;;;;;;5084021;27;20067;-69
2022/06/26 12:31:37;;;;;;;6.18;2.60;;;;;;;;;;5065308;28;20062;-66
2022/06/26 12:34:04;;;;;;;6.20;2.13;;;;;;;;;;5087337;28;20074;-69
2022/06/26 12:36:31;;;;;;;6.55;2.60;;;;;;;;;;5085331;28;20063;-70
2022/06/26 12:38:58;;;;;;;6.82;2.38;;;;;;;;;;5070148;28;20135;-70
2022/06/26 12:41:25;;;;;;;6.07;2.30;;;;;;;;;;5087578;28;20036;-71
2022/06/26 12:43:53;;;;;;;8.27;2.28;;;;;;;;;;5098224;27;20047;-71
2022/06/26 12:46:20;;;;;;;6.85;2.58;;;;;;;;;;5086799;28;20149;-71
2022/06/26 12:48:47;;;;;;;5.43;2.20;;;;;;;;;;5070382;28;20486;-71
2022/06/26 12:51:18;;;;;;;7.30;2.50;;;;;;;;;;5076199;28;20583;-70
2022/06/26 12:53:44;;;;;;;5.60;2.33;;;;;;;;;;5079121;28;20545;-70
2022/06/26 12:56:12;;;;;;;4.82;2.05;;;;;;;;;;5073870;28;20071;-70
2022/06/26 12:58:42;;;;;;;4.90;2.20;;;;;;;;;;5071127;28;20044;-70
2022/06/26 13:01:12;;;;;;;6.15;2.33;;;;;;;;;;5077100;28;20614;-69
2022/06/26 13:03:44;;;;;;;4.78;2.22;;;;;;;;;;5075917;28;20048;-70
2022/06/26 13:06:13;;;;;;;6.40;2.30;;;;;;;;;;5070188;28;20520;-70
2022/06/26 13:08:40;;;;;;;5.50;2.20;;;;;;;;;;5069018;28;20553;-69
2022/06/26 13:11:27;;;;;;;4.20;1.90;;;;;;;;;;5069419;28;20048;-69
2022/06/26 13:13:54;;;;;;;4.20;2.10;;;;;;;;;;5079355;28;20052;-70
2022/06/26 13:16:21;;;;;;;7.20;1.90;;;;;;;;;;5080630;28;20055;-70
2022/06/26 13:18:47;;;;;;;5.80;2.03;;;;;;;;;;5101385;28;20032;-70
2022/06/26 13:21:14;;;;;;;4.63;1.80;;;;;;;;;;5101745;27;20419;-70
2022/06/26 13:23:41;;;;;;;5.68;1.98;;;;;;;;;;5080409;27;20075;-70
2022/06/26 13:26:07;;;;;;;3.88;1.98;;;;;;;;;;5090319;28;20055;-70
2022/06/26 13:28:35;;;;;;;3.25;1.48;;;;;;;;;;5084106;28;20024;-69
2022/06/26 13:31:03;;;;;;;4.03;1.60;;;;;;;;;;5087477;28;20479;-70
2022/06/26 13:33:30;;;;;;;3.75;1.65;;;;;;;;;;5087598;27;20039;-70
2022/06/26 13:35:59;;;;;;;5.82;1.60;;;;;;;;;;5086638;28;20039;-71
2022/06/26 13:38:26;;;;;;;5.28;1.63;;;;;;;;;;5086260;28;20028;-70
2022/06/26 13:40:52;;;;;;;4.85;1.80;;;;;;;;;;5086304;27;20083;-71
2022/06/26 13:43:19;;;;;;;4.70;1.75;;;;;;;;;;5088032;28;20035;-69
2022/06/26 13:45:46;;;;;;;3.92;1.58;;;;;;;;;;5085449;28;20040;-68
2022/06/26 13:48:12;;;;;;;4.20;1.60;;;;;;;;;;5089812;28;20112;-69
2022/06/26 13:50:39;;;;;;;5.25;1.85;;;;;;;;;;5087363;27;20056;-69
2022/06/26 13:53:05;;;;;;;4.22;1.40;;;;;;;;;;5089216;28;20047;-66
2022/06/26 13:55:32;;;;;;;4.65;1.58;;;;;;;;;;5088950;27;20040;-69
2022/06/26 13:57:59;;;;;;;3.50;1.30;;;;;;;;;;5088632;28;20126;-69
2022/06/26 14:00:25;;;;;;;3.72;1.55;;;;;;;;;;5085061;28;20074;-69
2022/06/26 14:02:52;;;;;;;4.10;1.60;;;;;;;;;;5087146;28;20048;-68
2022/06/26 14:05:19;;;;;;;9.60;4.18;;;;;;;;;;5088805;28;20156;-68
2022/06/26 14:07:45;;;;;;;3.55;1.35;;;;;;;;;;5088496;28;20055;-69
2022/06/26 14:10:12;;;;;;;5.28;1.60;;;;;;;;;;5090229;28;20105;-69
2022/06/26 14:12:39;;;;;;;4.57;1.33;;;;;;;;;;5089383;28;20454;-70
2022/06/26 14:15:06;;;;;;;4.50;1.17;;;;;;;;;;5089340;28;20209;-70
2022/06/26 14:17:33;;;;;;;4.55;1.40;;;;;;;;;;5088938;28;20040;-69
2022/06/26 14:19:59;;;;;;;6.82;1.40;;;;;;;;;;5090029;28;20043;-69
2022/06/26 14:27:57;;;;;;;3.00;1.25;;;;;;;;;;5089171;28;20055;-69
2022/06/26 14:30:24;;;;;;;2.80;1.10;;;;;;;;;;5100840;27;20407;-69
2022/06/26 14:32:50;;;;;;;5.47;1.05;;;;;;;;;;5091206;27;20067;-70
2022/06/26 14:35:17;;;;;;;4.40;1.17;;;;;;;;;;5110444;27;20078;-70
2022/06/26 14:37:43;;;;;;;3.38;1.17;;;;;;;;;;5107516;27;20048;-69
2022/06/26 14:40:11;;;;;;;3.35;1.35;;;;;;;;;;5107821;27;20059;-70
2022/06/26 14:42:43;;;;;;;3.92;0.98;;;;;;;;;;5106784;27;20152;-70
2022/06/26 14:45:15;;;;;;;3.38;1.23;;;;;;;;;;5107826;27;20044;-69
2022/06/26 14:47:42;;;;;;;2.40;0.90;;;;;;;;;;5089506;27;20120;-69
2022/06/26 14:50:12;;;;;;;3.80;1.27;;;;;;;;;;5107704;27;20044;-68
2022/06/26 14:52:39;;;;;;;3.15;1.00;;;;;;;;;;5106025;27;20131;-69
2022/06/26 14:55:07;;;;;;;2.35;0.90;;;;;;;;;;5077334;28;20743;-71
2022/06/26 14:57:34;;;;;;;2.55;1.00;;;;;;;;;;5071217;28;20090;-66
2022/06/26 15:00:01;;;;;;;3.50;1.00;;;;;;;;;;5099478;27;20058;-66
2022/06/26 15:02:28;;;;;;;2.88;0.90;;;;;;;;;;5103637;27;20039;-67
2022/06/26 15:04:54;;;;;;;2.70;1.00;;;;;;;;;;5107413;27;20042;-65
2022/06/26 15:07:21;;;;;;;2.90;1.08;;;;;;;;;;5079063;28;20580;-67